createdAt,value
2018-01-26T00:01:19.904Z,41.45
2018-01-26T00:03:47.737Z,41.49
2018-01-26T00:06:16.053Z,41.46
2018-01-26T00:08:44.116Z,41.53
2018-01-26T00:11:12.092Z,41.58
2018-01-26T00:13:40.748Z,41.63
2018-01-26T00:16:08.722Z,41.58
2018-01-26T00:18:36.453Z,41.64
2018-01-26T00:21:06.147Z,41.59
2018-01-26T00:23:34.389Z,41.52
2018-01-26T00:26:04.319Z,41.54
2018-01-26T00:28:32.278Z,41.62
2018-01-26T00:31:00.444Z,41.62
2018-01-26T00:33:28.524Z,41.52
2018-01-26T00:35:56.371Z,41.48
2018-01-26T00:38:26.336Z,41.54
2018-01-26T00:40:54.418Z,41.50
2018-01-26T00:43:22.410Z,41.51
2018-01-26T00:45:50.420Z,41.38
2018-01-26T00:48:18.274Z,41.44
2018-01-26T00:50:46.562Z,41.42
2018-01-26T00:53:14.531Z,41.34
2018-01-26T00:55:42.694Z,41.35
2018-01-26T00:58:10.768Z,41.34
2018-01-26T01:00:38.766Z,41.25
2018-01-26T01:03:06.602Z,41.26
2018-01-26T01:05:49.921Z,41.27
2018-01-26T01:08:33.778Z,41.26
2018-01-26T01:11:17.334Z,41.27
2018-01-26T01:14:00.824Z,41.35
2018-01-26T01:16:45.613Z,41.26
2018-01-26T01:19:32.463Z,41.34
2018-01-26T01:22:15.884Z,41.31
2018-01-26T01:25:02.981Z,41.36
2018-01-26T01:27:46.238Z,41.38
2018-01-26T01:30:31.373Z,41.39
2018-01-26T01:33:14.049Z,41.37
2018-01-26T01:35:56.990Z,41.30
2018-01-26T01:38:24.897Z,41.37
2018-01-26T01:40:52.988Z,41.33
2018-01-26T01:43:20.734Z,41.38
2018-01-26T01:45:48.369Z,41.40
2018-01-26T01:48:20.436Z,41.47
2018-01-26T01:50:48.509Z,41.36
2018-01-26T01:53:16.368Z,41.46
2018-01-26T01:55:44.237Z,41.52
2018-01-26T01:58:12.206Z,41.47
2018-01-26T02:00:40.435Z,41.45
2018-01-26T02:03:08.551Z,41.44
2018-01-26T02:05:36.400Z,41.35
2018-01-26T02:08:04.592Z,41.38
2018-01-26T02:10:32.526Z,41.24
2018-01-26T02:13:00.529Z,41.35
2018-01-26T02:15:30.460Z,41.30
2018-01-26T02:17:58.303Z,41.16
2018-01-26T02:20:26.034Z,41.13
2018-01-26T02:22:53.718Z,41.12
2018-01-26T02:25:23.663Z,41.11
2018-01-26T02:27:51.723Z,41.07
2018-01-26T02:30:19.669Z,41.24
2018-01-26T02:32:47.612Z,41.14
2018-01-26T02:35:16.605Z,41.19
2018-01-26T02:37:44.418Z,41.11
2018-01-26T02:40:12.259Z,41.16
2018-01-26T02:42:40.233Z,41.18
2018-01-26T02:45:08.233Z,41.12
2018-01-26T02:47:36.091Z,41.15
2018-01-26T02:50:04.222Z,41.18
2018-01-26T02:52:32.223Z,41.23
2018-01-26T02:55:00.079Z,41.25
2018-01-26T02:57:27.979Z,41.21
2018-01-26T02:59:55.909Z,41.07
2018-01-26T03:02:23.877Z,41.10
2018-01-26T03:04:51.873Z,41.28
2018-01-26T03:07:21.800Z,41.23
2018-01-26T03:09:49.780Z,41.18
2018-01-26T03:12:17.931Z,41.12
2018-01-26T03:14:45.883Z,41.09
2018-01-26T03:17:13.843Z,41.19
2018-01-26T03:19:43.758Z,41.24
2018-01-26T03:22:11.524Z,41.31
2018-01-26T03:24:39.242Z,41.33
2018-01-26T03:27:07.062Z,41.14
2018-01-26T03:29:39.046Z,41.11
2018-01-26T03:32:07.784Z,41.14
2018-01-26T03:34:37.700Z,41.17
2018-01-26T03:37:05.411Z,41.52
2018-01-26T03:39:33.096Z,41.33
2018-01-26T03:42:00.823Z,41.15
2018-01-26T03:44:28.866Z,41.11
2018-01-26T03:46:56.827Z,41.09
2018-01-26T03:49:24.841Z,41.03
2018-01-26T03:51:52.810Z,41.07
2018-01-26T03:54:20.874Z,41.03
2018-01-26T03:56:48.846Z,40.97
2018-01-26T03:59:16.582Z,41.03
2018-01-26T04:01:44.583Z,41.00
2018-01-26T04:04:13.493Z,40.96
2018-01-26T04:06:41.285Z,41.04
2018-01-26T04:09:09.214Z,41.05
2018-01-26T04:11:37.490Z,40.96
2018-01-26T04:14:05.561Z,40.92
2018-01-26T04:16:33.437Z,40.91
2018-01-26T04:19:06.169Z,40.89
2018-01-26T04:21:34.375Z,40.85
2018-01-26T04:24:02.367Z,40.80
2018-01-26T04:26:32.671Z,40.81
2018-01-26T04:29:00.749Z,40.89
2018-01-26T04:31:32.821Z,40.89
2018-01-26T04:34:00.654Z,40.83
2018-01-26T04:36:30.794Z,40.86
2018-01-26T04:38:58.872Z,41.04
2018-01-26T04:41:30.930Z,40.88
2018-01-26T04:43:59.001Z,40.87
2018-01-26T04:46:29.121Z,41.00
2018-01-26T04:48:57.196Z,41.02
2018-01-26T04:51:25.128Z,40.94
2018-01-26T04:53:53.129Z,40.95
2018-01-26T04:56:21.209Z,40.95
2018-01-26T04:58:49.024Z,40.96
2018-01-26T05:01:16.841Z,40.90
2018-01-26T05:03:44.678Z,41.03
2018-01-26T05:06:12.722Z,41.21
2018-01-26T05:08:42.832Z,41.21
2018-01-26T05:11:10.699Z,41.16
2018-01-26T05:13:40.822Z,41.30
2018-01-26T05:16:12.538Z,41.39
2018-01-26T05:18:40.342Z,41.46
2018-01-26T05:21:08.163Z,41.44
2018-01-26T05:23:35.912Z,41.52
2018-01-26T05:26:03.742Z,41.51
2018-01-26T05:28:34.033Z,41.54
2018-01-26T05:31:02.085Z,41.60
2018-01-26T05:33:30.140Z,41.68
2018-01-26T05:35:58.087Z,41.61
2018-01-26T05:38:25.846Z,41.58
2018-01-26T05:40:53.862Z,42.03
2018-01-26T05:43:21.933Z,42.17
2018-01-26T05:45:50.004Z,41.61
2018-01-26T05:48:17.866Z,41.83
2018-01-26T05:50:45.851Z,42.26
2018-01-26T05:53:19.863Z,41.90
2018-01-26T05:55:47.978Z,42.30
2018-01-26T05:58:15.924Z,42.38
2018-01-26T06:00:47.958Z,42.54
2018-01-26T06:03:15.722Z,42.06
2018-01-26T06:05:44.524Z,42.25
2018-01-26T06:08:14.641Z,41.75
2018-01-26T06:10:42.479Z,41.68
2018-01-26T06:13:14.636Z,41.65
2018-01-26T06:15:42.610Z,41.63
2018-01-26T06:18:10.866Z,41.59
2018-01-26T06:20:43.004Z,41.32
2018-01-26T06:23:13.202Z,40.95
2018-01-26T06:25:40.960Z,39.88
2018-01-26T06:28:08.802Z,39.55
2018-01-26T06:30:36.488Z,38.98
2018-01-26T06:33:04.569Z,39.19
2018-01-26T06:35:36.356Z,39.06
2018-01-26T06:38:04.411Z,39.26
2018-01-26T06:40:32.461Z,39.15
2018-01-26T06:43:00.197Z,39.09
2018-01-26T06:45:30.543Z,39.14
2018-01-26T06:48:00.976Z,38.91
2018-01-26T06:50:29.064Z,38.50
2018-01-26T06:53:02.269Z,38.41
2018-01-26T06:55:30.128Z,38.60
2018-01-26T06:58:04.796Z,38.69
2018-01-26T07:00:35.230Z,38.53
2018-01-26T07:03:03.853Z,38.32
2018-01-26T07:05:31.686Z,38.35
2018-01-26T07:08:02.497Z,38.23
2018-01-26T07:10:30.222Z,38.12
2018-01-26T07:13:01.060Z,38.20
2018-01-26T07:15:28.848Z,38.01
2018-01-26T07:17:56.788Z,37.92
2018-01-26T07:20:24.648Z,37.91
2018-01-26T07:22:54.673Z,37.95
2018-01-26T07:25:22.954Z,37.78
2018-01-26T07:27:51.017Z,37.41
2018-01-26T07:30:23.145Z,37.16
2018-01-26T07:32:52.390Z,36.94
2018-01-26T07:35:20.449Z,36.83
2018-01-26T07:37:48.226Z,36.96
2018-01-26T07:40:16.251Z,36.92
2018-01-26T07:42:44.366Z,36.69
2018-01-26T07:45:12.082Z,36.79
2018-01-26T07:47:40.078Z,36.70
2018-01-26T07:50:09.909Z,36.51
2018-01-26T07:52:37.885Z,36.37
2018-01-26T07:55:05.848Z,36.42
2018-01-26T07:57:33.886Z,36.46
2018-01-26T08:00:04.026Z,36.58
2018-01-26T08:02:32.972Z,36.62
2018-01-26T08:05:00.704Z,36.67
2018-01-26T08:07:30.774Z,36.52
2018-01-26T08:09:58.788Z,36.61
2018-01-26T08:12:26.483Z,36.34
2018-01-26T08:14:58.261Z,36.26
2018-01-26T08:17:25.891Z,36.40
2018-01-26T08:19:53.580Z,36.26
2018-01-26T08:22:21.712Z,36.20
2018-01-26T08:24:49.768Z,35.96
2018-01-26T08:27:17.407Z,35.95
2018-01-26T08:29:45.996Z,35.90
2018-01-26T08:32:13.729Z,35.89
2018-01-26T08:34:41.376Z,35.86
2018-01-26T08:37:09.051Z,35.60
2018-01-26T08:39:36.686Z,35.57
2018-01-26T08:42:04.492Z,35.53
2018-01-26T08:44:32.252Z,35.57
2018-01-26T08:46:59.891Z,35.58
2018-01-26T08:49:27.530Z,35.53
2018-01-26T08:51:57.284Z,35.47
2018-01-26T08:54:24.938Z,35.56
2018-01-26T08:56:53.887Z,35.63
2018-01-26T08:59:21.641Z,35.41
2018-01-26T09:01:51.642Z,35.28
2018-01-26T09:04:19.780Z,35.30
2018-01-26T09:06:47.581Z,35.05
2018-01-26T09:09:15.447Z,35.04
2018-01-26T09:11:43.084Z,34.90
2018-01-26T09:14:11.554Z,34.99
2018-01-26T09:16:39.344Z,35.11
2018-01-26T09:19:07.041Z,35.00
2018-01-26T09:21:35.534Z,34.81
2018-01-26T09:24:03.597Z,34.79
2018-01-26T09:26:31.554Z,35.00
2018-01-26T09:28:59.592Z,35.15
2018-01-26T09:31:27.505Z,35.22
2018-01-26T09:33:55.574Z,35.33
2018-01-26T09:36:23.350Z,35.39
2018-01-26T09:38:51.098Z,35.31
2018-01-26T09:41:19.867Z,35.47
2018-01-26T09:43:47.572Z,35.49
2018-01-26T09:46:17.280Z,35.57
2018-01-26T09:48:44.922Z,35.45
2018-01-26T09:51:12.556Z,35.40
2018-01-26T09:53:40.304Z,35.47
2018-01-26T09:56:08.006Z,35.56
2018-01-26T09:58:35.642Z,35.54
2018-01-26T10:01:05.389Z,35.64
2018-01-26T10:03:33.019Z,35.69
2018-01-26T10:06:00.665Z,35.56
2018-01-26T10:08:28.348Z,35.33
2018-01-26T10:10:56.088Z,35.32
2018-01-26T10:13:27.832Z,35.66
2018-01-26T10:15:55.580Z,35.60
2018-01-26T10:18:23.210Z,35.80
2018-01-26T10:20:50.894Z,35.60
2018-01-26T10:23:18.628Z,35.71
2018-01-26T10:25:50.615Z,35.80
2018-01-26T10:28:18.447Z,35.87
2018-01-26T10:30:46.177Z,36.01
2018-01-26T10:33:16.359Z,36.00
2018-01-26T10:35:46.277Z,36.02
2018-01-26T10:38:14.348Z,35.95
2018-01-26T10:40:42.144Z,35.89
2018-01-26T10:43:09.875Z,35.90
2018-01-26T10:45:37.697Z,35.93
2018-01-26T10:48:05.701Z,36.00
2018-01-26T10:50:35.632Z,36.11
2018-01-26T10:53:03.427Z,35.98
2018-01-26T10:55:33.914Z,36.00
2018-01-26T10:58:01.994Z,36.07
2018-01-26T11:00:29.759Z,35.80
2018-01-26T11:02:58.123Z,35.87
2018-01-26T11:05:30.233Z,35.97
2018-01-26T11:07:58.472Z,35.83
2018-01-26T11:10:26.377Z,35.99
2018-01-26T11:12:56.615Z,36.12
2018-01-26T11:15:24.968Z,35.91
2018-01-26T11:17:52.883Z,35.86
2018-01-26T11:20:22.316Z,35.97
2018-01-26T11:22:54.791Z,35.99
2018-01-26T11:25:22.622Z,36.20
2018-01-26T11:27:50.711Z,36.31
2018-01-26T11:30:19.220Z,36.50
2018-01-26T11:32:46.971Z,36.59
2018-01-26T11:35:16.006Z,36.64
2018-01-26T11:37:45.872Z,36.75
2018-01-26T11:40:14.201Z,36.57
2018-01-26T11:42:42.029Z,36.52
2018-01-26T11:45:12.154Z,36.62
2018-01-26T11:47:41.229Z,36.71
2018-01-26T11:50:09.087Z,36.81
2018-01-26T11:52:37.218Z,36.62
2018-01-26T11:55:05.938Z,36.68
2018-01-26T11:57:33.902Z,36.79
2018-01-26T12:00:05.900Z,36.96
2018-01-26T12:02:35.814Z,36.97
2018-01-26T12:05:03.729Z,36.92
2018-01-26T12:07:31.712Z,36.85
2018-01-26T12:10:01.424Z,36.98
2018-01-26T12:12:29.368Z,36.96
2018-01-26T12:14:57.128Z,36.92
2018-01-26T12:17:27.248Z,37.06
2018-01-26T12:19:57.288Z,37.14
2018-01-26T12:22:31.489Z,37.08
2018-01-26T12:25:01.451Z,37.27
2018-01-26T12:27:31.009Z,37.41
2018-01-26T12:29:59.640Z,37.42
2018-01-26T12:32:27.414Z,36.97
2018-01-26T12:34:55.332Z,37.03
2018-01-26T12:37:23.298Z,37.29
2018-01-26T12:39:55.308Z,37.35
2018-01-26T12:42:23.304Z,37.21
2018-01-26T12:44:51.505Z,37.11
2018-01-26T12:47:23.516Z,37.01
2018-01-26T12:49:51.589Z,37.08
2018-01-26T12:52:24.029Z,36.99
2018-01-26T12:54:52.660Z,37.09
2018-01-26T12:57:20.418Z,37.15
2018-01-26T12:59:48.236Z,37.21
2018-01-26T13:02:16.423Z,37.15
2018-01-26T13:04:45.094Z,37.35
2018-01-26T13:07:12.968Z,36.75
2018-01-26T13:09:44.750Z,37.08
2018-01-26T13:12:13.512Z,37.32
2018-01-26T13:14:41.328Z,37.56
2018-01-26T13:17:11.442Z,37.62
2018-01-26T13:19:40.236Z,37.93
2018-01-26T13:22:10.653Z,38.03
2018-01-26T13:24:38.413Z,38.14
2018-01-26T13:27:06.793Z,38.21
2018-01-26T13:29:35.549Z,38.17
2018-01-26T13:32:06.577Z,38.32
2018-01-26T13:34:34.491Z,38.41
2018-01-26T13:37:07.680Z,38.53
2018-01-26T13:39:39.560Z,37.96
2018-01-26T13:42:08.137Z,38.14
2018-01-26T13:44:36.066Z,38.23
2018-01-26T13:47:04.157Z,37.75
2018-01-26T13:49:31.975Z,37.82
2018-01-26T13:51:59.988Z,38.00
2018-01-26T13:54:28.056Z,38.21
2018-01-26T13:56:56.153Z,38.26
2018-01-26T13:59:24.112Z,38.43
2018-01-26T14:01:51.735Z,38.55
2018-01-26T14:04:20.643Z,38.26
2018-01-26T14:06:48.285Z,38.35
2018-01-26T14:09:18.032Z,38.32
2018-01-26T14:11:45.662Z,38.46
2018-01-26T14:14:13.469Z,38.26
2018-01-26T14:16:41.117Z,38.40
2018-01-26T14:19:08.788Z,38.53
2018-01-26T14:21:36.462Z,38.73
2018-01-26T14:24:04.076Z,38.55
2018-01-26T14:26:33.812Z,38.64
2018-01-26T14:29:01.804Z,38.81
2018-01-26T14:31:29.521Z,38.90
2018-01-26T14:34:01.197Z,38.96
2018-01-26T14:36:28.858Z,39.03
2018-01-26T14:38:56.526Z,39.03
2018-01-26T14:41:24.150Z,39.04
2018-01-26T14:43:51.831Z,39.13
2018-01-26T14:46:21.506Z,39.19
2018-01-26T14:48:49.153Z,39.31
2018-01-26T14:51:18.843Z,39.30
2018-01-26T14:53:46.587Z,39.45
2018-01-26T14:56:14.295Z,39.44
2018-01-26T14:58:44.000Z,39.45
2018-01-26T15:01:11.671Z,39.30
2018-01-26T15:03:39.342Z,39.14
2018-01-26T15:06:07.040Z,38.17
2018-01-26T15:08:34.780Z,37.00
2018-01-26T15:11:02.396Z,36.99
2018-01-26T15:13:32.114Z,37.31
2018-01-26T15:15:59.774Z,37.75
2018-01-26T15:18:29.775Z,38.27
2018-01-26T15:20:57.417Z,38.63
2018-01-26T15:23:25.045Z,38.86
2018-01-26T15:25:54.930Z,39.22
2018-01-26T15:28:22.582Z,39.16
2018-01-26T15:30:50.260Z,39.28
2018-01-26T15:33:18.011Z,39.35
2018-01-26T15:35:50.622Z,39.36
2018-01-26T15:38:18.312Z,39.42
2018-01-26T15:40:46.016Z,39.49
2018-01-26T15:43:13.731Z,39.64
2018-01-26T15:45:41.420Z,39.71
2018-01-26T15:48:09.049Z,39.79
2018-01-26T15:50:38.851Z,39.78
2018-01-26T15:53:06.488Z,39.80
2018-01-26T15:55:34.155Z,39.83
2018-01-26T15:58:06.927Z,39.88
2018-01-26T16:00:34.692Z,39.97
2018-01-26T16:03:02.344Z,40.04
2018-01-26T16:05:30.426Z,40.06
2018-01-26T16:07:58.177Z,40.07
2018-01-26T16:10:28.194Z,40.02
2018-01-26T16:12:55.818Z,40.03
2018-01-26T16:15:26.428Z,40.03
2018-01-26T16:17:55.200Z,40.00
2018-01-26T16:20:22.837Z,39.98
2018-01-26T16:22:50.515Z,40.00
2018-01-26T16:25:18.160Z,40.00
2018-01-26T16:27:48.392Z,40.04
2018-01-26T16:30:16.990Z,40.02
2018-01-26T16:32:44.632Z,40.01
2018-01-26T16:35:14.340Z,40.01
2018-01-26T16:37:46.186Z,40.04
2018-01-26T16:40:14.709Z,40.04
2018-01-26T16:42:42.337Z,40.06
2018-01-26T16:45:14.095Z,40.08
2018-01-26T16:47:47.820Z,40.11
2018-01-26T16:50:16.602Z,40.14
2018-01-26T16:52:48.446Z,40.17
2018-01-26T16:55:16.188Z,40.20
2018-01-26T16:57:45.936Z,40.22
2018-01-26T17:00:13.610Z,40.23
2018-01-26T17:02:45.317Z,40.26
2018-01-26T17:05:15.073Z,40.26
2018-01-26T17:07:46.384Z,40.30
2018-01-26T17:10:14.246Z,40.35
2018-01-26T17:12:41.943Z,40.42
2018-01-26T17:15:09.652Z,40.44
2018-01-26T17:17:37.364Z,40.44
2018-01-26T17:20:09.111Z,40.41
2018-01-26T17:22:41.789Z,40.46
2018-01-26T17:25:11.568Z,40.49
2018-01-26T17:27:39.284Z,40.54
2018-01-26T17:30:08.123Z,40.59
2018-01-26T17:32:36.621Z,40.61
2018-01-26T17:35:08.398Z,40.60
2018-01-26T17:37:36.020Z,40.55
2018-01-26T17:40:03.655Z,40.58
2018-01-26T17:42:35.376Z,40.58
2018-01-26T17:45:07.202Z,40.62
2018-01-26T17:47:37.041Z,40.59
2018-01-26T17:50:04.957Z,40.57
2018-01-26T17:52:37.491Z,40.60
2018-01-26T17:55:05.884Z,40.62
2018-01-26T17:57:33.617Z,40.75
2018-01-26T18:00:05.610Z,40.85
2018-01-26T18:02:33.282Z,40.80
2018-01-26T18:05:00.958Z,40.74
2018-01-26T18:07:29.224Z,40.72
2018-01-26T18:10:01.058Z,40.67
2018-01-26T18:12:28.859Z,40.67
2018-01-26T18:14:56.511Z,40.72
2018-01-26T18:17:28.346Z,40.74
2018-01-26T18:19:55.981Z,40.87
2018-01-26T18:22:24.393Z,40.81
2018-01-26T18:24:56.239Z,40.75
2018-01-26T18:27:23.880Z,40.74
2018-01-26T18:29:51.555Z,40.74
2018-01-26T18:32:23.246Z,40.78
2018-01-26T18:34:50.882Z,40.82
2018-01-26T18:37:18.798Z,40.81
2018-01-26T18:39:46.465Z,40.80
2018-01-26T18:42:17.416Z,40.83
2018-01-26T18:44:47.484Z,40.89
2018-01-26T18:47:15.113Z,40.94
2018-01-26T18:49:42.765Z,40.99
2018-01-26T18:52:10.445Z,40.96
2018-01-26T18:54:38.078Z,40.98
2018-01-26T18:57:08.325Z,40.94
2018-01-26T18:59:35.960Z,40.95
2018-01-26T19:02:04.298Z,41.03
2018-01-26T19:04:32.288Z,41.08
2018-01-26T19:07:04.256Z,41.15
2018-01-26T19:09:34.133Z,41.17
2018-01-26T19:12:01.767Z,41.16
2018-01-26T19:14:34.242Z,41.19
2018-01-26T19:17:02.135Z,41.22
2018-01-26T19:19:29.819Z,41.30
2018-01-26T19:21:59.530Z,41.29
2018-01-26T19:24:27.312Z,41.31
2018-01-26T19:26:54.970Z,41.33
2018-01-26T19:29:25.676Z,41.36
2018-01-26T19:31:53.305Z,41.47
2018-01-26T19:34:25.807Z,41.49
2018-01-26T19:36:55.846Z,41.45
2018-01-26T19:39:23.513Z,41.50
2018-01-26T19:41:51.149Z,41.52
2018-01-26T19:44:23.175Z,41.56
2018-01-26T19:46:51.504Z,41.50
2018-01-26T19:49:19.453Z,41.55
2018-01-26T19:51:49.165Z,41.57
2018-01-26T19:54:21.268Z,41.62
2018-01-26T19:56:50.126Z,41.63
2018-01-26T19:59:17.807Z,41.64
2018-01-26T20:01:47.590Z,41.62
2018-01-26T20:07:45.309Z,41.54
2018-01-26T20:10:14.081Z,41.63
2018-01-26T20:12:48.505Z,41.63
2018-01-26T20:15:16.455Z,41.64
2018-01-26T20:17:45.063Z,41.67
2018-01-26T20:20:13.932Z,41.72
2018-01-26T20:22:42.290Z,41.70
2018-01-26T20:25:10.521Z,41.66
2018-01-26T20:27:40.765Z,41.62
2018-01-26T20:30:09.093Z,41.59
2018-01-26T20:32:37.174Z,41.58
2018-01-26T20:35:05.544Z,41.56
2018-01-26T20:37:33.359Z,41.58
2018-01-26T20:40:02.098Z,41.57
2018-01-26T20:42:30.243Z,41.60
2018-01-26T20:45:04.594Z,41.58
2018-01-26T20:47:34.708Z,41.59
2018-01-26T20:50:03.364Z,41.57
2018-01-26T20:52:31.327Z,41.66
2018-01-26T20:54:59.553Z,41.59
2018-01-26T20:57:30.479Z,41.58
2018-01-26T20:59:58.423Z,41.58
2018-01-26T21:02:26.399Z,41.60
2018-01-26T21:04:55.083Z,41.61
2018-01-26T21:07:27.376Z,41.62
2018-01-26T21:09:55.150Z,41.64
2018-01-26T21:12:25.351Z,41.62
2018-01-26T21:14:53.914Z,41.60
2018-01-26T21:17:24.132Z,41.59
2018-01-26T21:19:54.348Z,41.60
2018-01-26T21:22:22.312Z,41.61
2018-01-26T21:24:50.539Z,41.64
2018-01-26T21:27:18.444Z,41.66
2018-01-26T21:29:46.633Z,41.65
2018-01-26T21:32:15.750Z,41.65
2018-01-26T21:34:45.988Z,41.60
2018-01-26T21:37:14.044Z,41.64
2018-01-26T21:39:41.870Z,41.60
2018-01-26T21:42:10.097Z,41.59
2018-01-26T21:44:38.257Z,41.65
2018-01-26T21:47:06.951Z,41.66
2018-01-26T21:49:39.016Z,41.65
2018-01-26T21:52:11.115Z,41.69
2018-01-26T21:54:43.157Z,41.70
2018-01-26T21:57:13.364Z,41.68
2018-01-26T21:59:41.655Z,41.75
2018-01-26T22:02:11.966Z,41.74
2018-01-26T22:04:47.731Z,41.74
2018-01-26T22:07:21.139Z,41.83
2018-01-26T22:09:51.227Z,41.80
2018-01-26T22:12:19.598Z,41.81
2018-01-26T22:14:51.671Z,41.71
2018-01-26T22:17:19.877Z,41.79
2018-01-26T22:19:47.967Z,41.87
2018-01-26T22:22:15.968Z,41.85
2018-01-26T22:24:44.253Z,41.77
2018-01-26T22:27:12.464Z,41.77
2018-01-26T22:29:40.480Z,41.73
2018-01-26T22:32:08.774Z,41.74
2018-01-26T22:34:38.787Z,41.76
2018-01-26T22:37:11.105Z,41.67
2018-01-26T22:39:39.351Z,41.67
2018-01-26T22:42:07.509Z,41.67
2018-01-26T22:44:36.262Z,41.68
2018-01-26T22:47:04.464Z,41.64
2018-01-26T22:49:32.403Z,41.70
2018-01-26T22:52:00.592Z,41.79
2018-01-26T22:54:30.629Z,41.74
2018-01-26T22:56:58.527Z,41.70
2018-01-26T22:59:26.778Z,41.74
2018-01-26T23:01:54.850Z,41.85
2018-01-26T23:04:25.061Z,41.82
2018-01-26T23:06:55.329Z,41.73
2018-01-26T23:09:23.426Z,41.69
2018-01-26T23:11:51.619Z,41.71
2018-01-26T23:14:21.650Z,41.74
2018-01-26T23:16:49.900Z,41.68
2018-01-26T23:19:17.867Z,41.66
2018-01-26T23:21:45.939Z,41.63
2018-01-26T23:24:14.236Z,41.65
2018-01-26T23:26:42.059Z,41.59
2018-01-26T23:29:10.249Z,41.64
2018-01-26T23:31:38.218Z,41.65
2018-01-26T23:34:06.222Z,41.63
2018-01-26T23:36:35.519Z,41.56
2018-01-26T23:39:03.662Z,41.59
2018-01-26T23:41:33.813Z,41.61
2018-01-26T23:44:02.070Z,41.50
2018-01-26T23:46:34.007Z,41.51
2018-01-26T23:49:02.234Z,41.59
2018-01-26T23:51:30.199Z,41.75
2018-01-26T23:53:58.340Z,41.74
2018-01-26T23:56:26.420Z,41.54
2018-01-26T23:58:54.360Z,41.52
